Time;durP1;ratioP1;P1;durP2;ratioP2;P2;SDS_P1;SDS_P2;PMS_P1;PMS_P2;Temp;Humidity;BMP_temperature;BMP_pressure;BME280_temperature;BME280_humidity;BME280_pressure;Samples;Min_cycle;Max_cycle;Signal;HPM_P1;HPM_P2
2023/05/08 00:00:21;;;;;;;9.65;8.85;;;11.80;99.90;;;;;;4996681;28;20129;-84
2023/05/08 00:02:49;;;;;;;11.50;10.45;;;11.80;99.90;;;;;;5024369;28;20124;-84
2023/05/08 00:05:18;;;;;;;11.45;10.35;;;11.80;99.90;;;;;;5014605;28;20041;-87
2023/05/08 00:07:44;;;;;;;10.88;9.88;;;11.70;99.90;;;;;;5030072;28;20041;-87
2023/05/08 00:10:11;;;;;;;10.82;9.88;;;12.20;99.90;;;;;;5028501;28;20087;-86
2023/05/08 00:12:37;;;;;;;11.45;10.35;;;13.40;99.90;;;;;;5025314;28;20044;-85
2023/05/08 00:15:05;;;;;;;14.15;11.38;;;13.10;99.90;;;;;;5029778;28;20042;-88
2023/05/08 00:17:31;;;;;;;13.02;10.65;;;11.70;99.90;;;;;;5013894;28;20120;-89
2023/05/08 00:19:57;;;;;;;11.93;10.82;;;11.70;99.90;;;;;;5025216;28;20041;-83
2023/05/08 00:22:23;;;;;;;12.10;11.00;;;13.20;99.90;;;;;;5011453;28;20493;-87
2023/05/08 00:24:50;;;;;;;12.07;10.95;;;11.70;99.90;;;;;;5009939;28;20045;-88
2023/05/08 00:27:16;;;;;;;16.77;10.85;;;11.60;99.90;;;;;;5028959;28;20543;-87
2023/05/08 00:29:42;;;;;;;12.32;11.20;;;11.50;99.90;;;;;;5010450;28;20033;-88
2023/05/08 00:32:08;;;;;;;12.13;10.90;;;12.80;99.90;;;;;;5006745;28;20034;-87
2023/05/08 00:34:34;;;;;;;13.25;11.88;;;13.90;99.90;;;;;;5033516;28;20053;-87
2023/05/08 00:37:02;;;;;;;12.55;11.30;;;11.50;99.90;;;;;;5021154;28;20091;-89
2023/05/08 00:39:31;;;;;;;12.23;11.20;;;11.50;99.90;;;;;;5012552;28;20041;-85
2023/05/08 00:41:57;;;;;;;11.88;10.52;;;11.80;99.90;;;;;;5014230;28;20056;-87
2023/05/08 00:44:24;;;;;;;12.65;11.35;;;13.70;99.90;;;;;;5018004;28;20042;-89
2023/05/08 00:46:52;;;;;;;12.50;11.30;;;11.30;99.90;;;;;;5037845;28;20073;-86
2023/05/08 00:49:18;;;;;;;12.88;11.52;;;13.40;99.90;;;;;;5021381;28;20081;-85
2023/05/08 00:51:49;;;;;;;12.45;11.23;;;11.40;99.90;;;;;;5034453;28;20095;-85
2023/05/08 00:54:16;;;;;;;12.88;11.55;;;12.80;99.90;;;;;;5026736;28;20068;-87
2023/05/08 00:56:45;;;;;;;12.52;11.32;;;11.40;99.90;;;;;;5035280;28;20120;-80
2023/05/08 00:59:16;;;;;;;13.15;11.80;;;11.40;99.90;;;;;;4988143;28;20480;-87
2023/05/08 01:01:42;;;;;;;14.05;12.60;;;11.30;99.90;;;;;;5007406;28;20029;-83
2023/05/08 01:04:10;;;;;;;12.32;11.07;;;11.30;99.90;;;;;;5006029;28;20052;-88
2023/05/08 01:06:36;;;;;;;12.85;11.65;;;11.30;99.90;;;;;;5031958;28;20523;-85
2023/05/08 01:09:02;;;;;;;15.57;12.60;;;11.30;99.90;;;;;;5028004;28;20030;-89
2023/05/08 01:11:43;;;;;;;13.48;12.15;;;11.30;99.90;;;;;;5012146;28;20093;-85
2023/05/08 01:14:18;;;;;;;13.30;11.98;;;11.30;99.90;;;;;;5003686;28;20045;-82
2023/05/08 01:17:05;;;;;;;13.30;11.90;;;11.30;99.90;;;;;;5009612;28;20123;-82
2023/05/08 01:19:41;;;;;;;12.52;11.32;;;11.10;99.90;;;;;;5021446;28;20037;-82
2023/05/08 01:22:32;;;;;;;13.90;12.50;;;11.20;99.90;;;;;;5014620;28;20041;-87
2023/05/08 01:25:22;;;;;;;14.65;13.32;;;11.70;99.90;;;;;;5019023;28;20033;-86
2023/05/08 01:27:57;;;;;;;13.88;12.52;;;11.10;99.90;;;;;;5006547;28;20687;-88
2023/05/08 01:30:58;;;;;;;14.27;12.90;;;11.10;99.90;;;;;;5010638;28;20144;-84
2023/05/08 01:33:44;;;;;;;13.98;12.57;;;11.10;99.90;;;;;;5001923;28;20136;-87
2023/05/08 01:36:28;;;;;;;13.60;12.30;;;11.00;99.90;;;;;;5028763;28;20073;-85
2023/05/08 01:39:17;;;;;;;14.13;12.60;;;11.10;99.90;;;;;;5028029;28;20047;-84
2023/05/08 01:42:09;;;;;;;14.15;12.75;;;11.00;99.90;;;;;;5019063;28;20091;-88
2023/05/08 01:44:53;;;;;;;13.80;12.35;;;11.00;99.90;;;;;;5003892;28;20053;-87
2023/05/08 01:47:23;;;;;;;13.70;12.32;;;12.30;99.90;;;;;;5010662;28;20045;-83
2023/05/08 01:50:01;;;;;;;19.33;12.75;;;10.70;99.90;;;;;;5020718;28;20132;-88
2023/05/08 01:52:39;;;;;;;13.38;12.05;;;11.00;99.90;;;;;;5010761;28;20503;-85
2023/05/08 01:55:09;;;;;;;13.77;12.38;;;11.00;99.90;;;;;;5029644;28;20041;-88
2023/05/08 01:57:42;;;;;;;16.83;12.95;;;10.90;99.90;;;;;;5008999;28;20586;-85
2023/05/08 02:00:08;;;;;;;13.90;12.55;;;10.90;99.90;;;;;;5027778;28;20077;-85
2023/05/08 02:02:35;;;;;;;14.52;13.10;;;10.90;99.90;;;;;;5026061;28;20042;-87
2023/05/08 02:05:04;;;;;;;16.08;12.50;;;10.90;99.90;;;;;;5019627;28;20121;-85
2023/05/08 02:07:34;;;;;;;14.30;12.80;;;10.90;99.90;;;;;;5017511;28;20052;-88
2023/05/08 02:10:03;;;;;;;16.58;12.73;;;12.40;99.90;;;;;;4997611;28;20124;-88
2023/05/08 02:12:31;;;;;;;14.10;12.65;;;10.80;99.90;;;;;;5020903;28;20038;-86
2023/05/08 02:14:58;;;;;;;13.93;12.73;;;10.80;99.90;;;;;;5027874;28;20041;-87
2023/05/08 02:17:26;;;;;;;16.45;13.32;;;10.60;99.90;;;;;;5011959;28;20049;-85
2023/05/08 02:19:53;;;;;;;12.95;11.70;;;10.80;99.90;;;;;;5011510;28;20080;-83
2023/05/08 02:22:22;;;;;;;14.30;13.00;;;10.80;99.90;;;;;;5010975;28;20038;-85
2023/05/08 02:24:52;;;;;;;13.25;11.88;;;10.70;99.90;;;;;;5024914;28;20048;-85
2023/05/08 02:27:19;;;;;;;15.13;13.63;;;10.90;99.90;;;;;;5012282;28;20034;-82
2023/05/08 02:29:46;;;;;;;14.45;12.93;;;10.70;99.90;;;;;;5019420;28;20511;-84
2023/05/08 02:32:13;;;;;;;15.18;13.65;;;10.90;99.90;;;;;;5010021;28;20053;-83
2023/05/08 02:34:41;;;;;;;14.20;12.90;;;10.80;99.90;;;;;;5011911;28;20053;-84
2023/05/08 02:37:09;;;;;;;13.82;12.07;;;12.10;99.90;;;;;;5019097;28;20107;-84
2023/05/08 02:39:37;;;;;;;13.55;12.15;;;10.60;99.90;;;;;;5004541;28;20491;-81
2023/05/08 02:42:02;;;;;;;14.63;12.85;;;11.90;99.90;;;;;;5020922;28;20029;-83
2023/05/08 02:44:28;;;;;;;15.10;13.55;;;10.60;99.90;;;;;;5014792;28;20037;-89
2023/05/08 02:47:51;;;;;;;13.93;12.52;;;11.80;99.90;;;;;;5030297;28;20041;-89
2023/05/08 02:50:25;;;;;;;14.55;13.15;;;10.50;99.90;;;;;;4954446;28;20047;-86
2023/05/08 02:52:58;;;;;;;13.02;11.77;;;11.70;99.90;;;;;;4973253;28;20053;-84
2023/05/08 02:55:41;;;;;;;14.30;13.00;;;11.60;99.90;;;;;;5018021;28;20060;-85
2023/05/08 02:58:23;;;;;;;14.75;13.45;;;10.50;99.90;;;;;;5033518;28;20075;-84
2023/05/08 03:01:07;;;;;;;14.15;12.85;;;10.50;99.90;;;;;;5010121;28;20440;-85
2023/05/08 03:03:42;;;;;;;14.00;12.60;;;10.50;99.90;;;;;;5007244;28;20038;-87
2023/05/08 03:06:13;;;;;;;15.30;13.77;;;12.90;99.90;;;;;;5014516;28;20161;-87
2023/05/08 03:08:41;;;;;;;14.90;13.50;;;10.40;99.90;;;;;;5026677;28;20042;-81
2023/05/08 03:11:13;;;;;;;14.85;13.43;;;12.70;99.90;;;;;;5027685;28;20095;-88
2023/05/08 03:13:41;;;;;;;14.55;13.10;;;10.80;99.90;;;;;;5034882;28;20481;-82
2023/05/08 03:16:13;;;;;;;14.82;13.43;;;10.40;99.90;;;;;;5026650;28;20116;-88
2023/05/08 03:18:49;;;;;;;14.68;13.13;;;10.40;99.90;;;;;;5021682;28;20465;-87
2023/05/08 03:21:18;;;;;;;15.95;14.45;;;10.20;99.90;;;;;;5030222;28;20134;-84
2023/05/08 03:23:46;;;;;;;16.08;14.38;;;10.10;99.90;;;;;;5022904;28;20044;-89
2023/05/08 03:26:20;;;;;;;15.13;13.73;;;10.00;99.90;;;;;;5013218;28;20128;-86
2023/05/08 03:28:48;;;;;;;15.48;13.77;;;11.80;99.90;;;;;;5014736;28;20045;-86
2023/05/08 03:31:19;;;;;;;14.90;13.50;;;11.40;99.90;;;;;;5010851;28;20068;-86
2023/05/08 03:33:55;;;;;;;14.82;13.52;;;10.10;99.90;;;;;;5023964;28;20042;-86
2023/05/08 03:36:31;;;;;;;14.27;12.95;;;10.00;99.90;;;;;;5029894;28;20037;-84
2023/05/08 03:38:58;;;;;;;15.95;14.35;;;10.00;99.90;;;;;;5029147;28;20084;-89
2023/05/08 03:41:24;;;;;;;15.55;13.95;;;10.00;99.90;;;;;;5011084;28;20034;-86
2023/05/08 03:43:50;;;;;;;15.60;14.05;;;11.00;99.90;;;;;;5024553;28;20378;-84
2023/05/08 03:46:16;;;;;;;15.50;13.95;;;10.00;99.90;;;;;;5012955;28;20052;-86
2023/05/08 03:48:43;;;;;;;15.60;13.32;;;12.00;99.90;;;;;;5011442;28;20075;-85
2023/05/08 03:51:08;;;;;;;15.55;14.00;;;11.50;99.90;;;;;;5027999;28;20600;-85
2023/05/08 03:53:35;;;;;;;17.00;14.07;;;12.00;99.90;;;;;;5023944;28;20046;-86
2023/05/08 03:56:01;;;;;;;17.50;15.23;;;9.90;99.90;;;;;;5012251;28;20040;-80
2023/05/08 03:58:45;;;;;;;16.27;14.77;;;11.10;99.90;;;;;;5019845;28;20041;-85
2023/05/08 04:01:12;;;;;;;15.52;13.98;;;9.80;99.90;;;;;;5030965;28;20051;-82
2023/05/08 04:04:03;;;;;;;16.40;14.88;;;9.80;99.90;;;;;;5028147;28;20046;-83
2023/05/08 04:06:52;;;;;;;18.17;14.82;;;9.80;99.90;;;;;;5032368;28;20485;-87
2023/05/08 04:09:38;;;;;;;16.60;14.95;;;9.70;99.90;;;;;;5020312;28;20057;-86
2023/05/08 04:12:17;;;;;;;16.17;14.65;;;9.70;99.90;;;;;;5005596;28;20084;-85
2023/05/08 04:14:55;;;;;;;17.52;14.60;;;10.40;99.90;;;;;;4990616;28;20056;-85
2023/05/08 04:17:33;;;;;;;14.88;13.38;;;11.50;99.90;;;;;;5017557;28;20089;-81
2023/05/08 04:20:03;;;;;;;15.10;13.63;;;10.30;99.90;;;;;;5021176;28;20068;-83
2023/05/08 04:22:33;;;;;;;15.50;13.73;;;10.10;99.90;;;;;;5042881;28;20075;-81
2023/05/08 04:25:05;;;;;;;16.13;14.52;;;9.50;99.90;;;;;;5025729;28;20045;-84
2023/05/08 04:27:31;;;;;;;15.02;13.60;;;10.00;99.90;;;;;;5005879;28;20042;-81
2023/05/08 04:29:57;;;;;;;16.83;15.15;;;12.00;99.90;;;;;;5012443;28;20045;-88
2023/05/08 04:32:24;;;;;;;16.27;14.68;;;11.50;99.90;;;;;;5029776;28;20408;-84
2023/05/08 04:34:50;;;;;;;19.45;15.43;;;11.80;99.90;;;;;;5019418;28;20038;-83
2023/05/08 04:37:28;;;;;;;16.13;13.85;;;10.20;99.90;;;;;;5019327;28;20051;-85
2023/05/08 04:39:54;;;;;;;16.42;14.82;;;10.60;99.90;;;;;;5013356;28;20038;-82
2023/05/08 04:42:20;;;;;;;15.70;13.45;;;;;;;;;;5011920;28;20052;-78
2023/05/08 04:44:46;;;;;;;14.63;13.13;;;;;;;;;;5010412;28;20382;-82
2023/05/08 04:47:13;;;;;;;13.52;12.13;;;9.60;99.90;;;;;;5010987;28;20041;-88
2023/05/08 04:49:38;;;;;;;15.65;14.15;;;9.60;99.90;;;;;;5010408;28;20041;-83
2023/05/08 04:52:05;;;;;;;15.95;14.20;;;9.60;99.90;;;;;;5013496;28;20039;-82
2023/05/08 04:54:31;;;;;;;14.30;12.90;;;9.70;99.90;;;;;;5028892;28;20056;-80
2023/05/08 04:56:57;;;;;;;14.98;13.20;;;9.70;99.90;;;;;;5028921;28;20041;-84
2023/05/08 04:59:24;;;;;;;15.02;13.30;;;10.60;99.90;;;;;;5026800;28;20053;-86
2023/05/08 05:01:49;;;;;;;14.55;13.07;;;8.00;99.90;;;;;;5035724;28;20041;-85
2023/05/08 05:04:15;;;;;;;14.07;12.52;;;11.20;99.90;;;;;;5013352;28;20049;-82
2023/05/08 05:06:41;;;;;;;14.60;13.20;;;12.70;99.90;;;;;;5011258;28;20052;-83
2023/05/08 05:09:06;;;;;;;14.20;12.80;;;9.80;99.90;;;;;;5011540;28;20061;-84
2023/05/08 05:11:32;;;;;;;14.02;12.38;;;11.90;99.90;;;;;;5026670;28;20160;-82
2023/05/08 05:13:58;;;;;;;14.63;13.13;;;12.20;99.90;;;;;;5027648;28;20033;-84
2023/05/08 05:16:24;;;;;;;14.38;13.07;;;11.30;99.90;;;;;;5027956;28;20037;-82
2023/05/08 05:18:50;;;;;;;13.93;12.70;;;11.40;99.90;;;;;;5028821;28;20052;-83
2023/05/08 05:21:17;;;;;;;14.30;12.95;;;12.20;99.90;;;;;;5012664;28;20125;-82
2023/05/08 05:23:42;;;;;;;14.57;13.23;;;12.30;99.90;;;;;;5012312;28;20033;-85
2023/05/08 05:26:08;;;;;;;14.27;12.88;;;9.90;99.90;;;;;;5011668;28;20542;-83
2023/05/08 05:28:33;;;;;;;13.80;12.30;;;10.00;99.90;;;;;;5028545;28;20124;-83
2023/05/08 05:30:59;;;;;;;13.88;12.15;;;10.00;99.90;;;;;;5027847;28;20444;-83
2023/05/08 05:33:25;;;;;;;12.50;11.30;;;12.50;99.90;;;;;;5026400;28;20064;-80
2023/05/08 05:35:50;;;;;;;14.07;12.60;;;12.50;99.90;;;;;;5021659;28;20160;-82
2023/05/08 05:38:16;;;;;;;13.90;12.60;;;11.90;99.90;;;;;;4314118;28;10000680;-85
2023/05/08 05:40:42;;;;;;;12.60;11.40;;;11.70;99.90;;;;;;5021126;28;20044;-85
2023/05/08 05:43:08;;;;;;;13.82;12.38;;;12.30;99.90;;;;;;5025533;28;20061;-82
2023/05/08 05:45:33;;;;;;;12.82;11.63;;;10.20;99.90;;;;;;5021754;28;20045;-83
2023/05/08 05:47:59;;;;;;;13.30;12.10;;;10.50;99.90;;;;;;5020287;28;20036;-82
2023/05/08 05:50:26;;;;;;;12.32;11.20;;;12.60;99.90;;;;;;5015075;28;20119;-82
2023/05/08 05:52:53;;;;;;;12.27;11.18;;;12.40;99.90;;;;;;5013200;28;20097;-84
2023/05/08 05:55:19;;;;;;;12.32;11.07;;;10.30;99.90;;;;;;5031901;28;20528;-84
2023/05/08 05:57:45;;;;;;;13.45;11.15;;;11.40;99.90;;;;;;5029803;28;20204;-88
2023/05/08 06:00:11;;;;;;;12.70;11.38;;;10.50;99.90;;;;;;5011098;28;20102;-87
2023/05/08 06:02:37;;;;;;;11.95;10.85;;;10.50;99.90;;;;;;5028862;28;20111;-84
2023/05/08 06:05:04;;;;;;;12.10;10.90;;;10.60;99.90;;;;;;5010602;28;20432;-83
2023/05/08 06:07:33;;;;;;;12.32;11.23;;;10.60;99.90;;;;;;5011748;28;20041;-85
2023/05/08 06:09:59;;;;;;;10.52;9.63;;;;;;;;;;5012359;28;20037;-87
2023/05/08 06:12:26;;;;;;;14.65;11.35;;;10.70;99.90;;;;;;5016260;28;20072;-83
2023/05/08 06:14:52;;;;;;;14.25;10.95;;;10.70;99.90;;;;;;5026836;28;20438;-88
2023/05/08 06:17:18;;;;;;;11.73;10.52;;;10.70;99.90;;;;;;5011087;28;20227;-85
2023/05/08 06:19:49;;;;;;;13.45;11.18;;;13.20;99.90;;;;;;5014302;28;20045;-88
2023/05/08 06:22:16;;;;;;;11.98;10.88;;;13.40;99.90;;;;;;5014638;28;20184;-86
2023/05/08 06:24:42;;;;;;;12.80;11.60;;;10.90;99.90;;;;;;5031270;28;20056;-87
2023/05/08 06:27:08;;;;;;;11.35;10.35;;;11.00;99.90;;;;;;5028668;28;20037;-84
2023/05/08 06:29:34;;;;;;;11.32;10.25;;;12.20;99.90;;;;;;5037798;28;20394;-85
2023/05/08 06:32:00;;;;;;;11.38;10.27;;;11.10;99.90;;;;;;5027037;28;20026;-87
2023/05/08 06:34:25;;;;;;;11.38;10.30;;;13.10;99.90;;;;;;5019191;28;20107;-87
2023/05/08 06:36:51;;;;;;;16.85;11.77;;;13.50;99.90;;;;;;5031964;28;20132;-84
2023/05/08 06:39:17;;;;;;;12.60;11.50;;;13.10;99.90;;;;;;5017932;28;20042;-86
2023/05/08 06:41:47;;;;;;;11.38;10.27;;;11.30;99.90;;;;;;5030023;28;20037;-85
2023/05/08 06:44:12;;;;;;;11.98;10.88;;;13.50;99.90;;;;;;5033750;28;20056;-86
2023/05/08 06:46:38;;;;;;;11.98;10.90;;;13.80;99.90;;;;;;5019291;28;20413;-88
2023/05/08 06:49:04;;;;;;;10.77;9.88;;;11.40;99.90;;;;;;5019028;28;20481;-87
2023/05/08 06:51:30;;;;;;;11.50;10.40;;;12.90;99.90;;;;;;5026226;28;20492;-83
2023/05/08 06:53:56;;;;;;;12.10;11.00;;;13.80;99.90;;;;;;5020297;28;20068;-81
2023/05/08 06:56:21;;;;;;;11.02;9.93;;;11.40;99.90;;;;;;5035302;28;20079;-86
2023/05/08 06:58:47;;;;;;;11.60;10.60;;;11.60;99.90;;;;;;5014472;28;20060;-89
2023/05/08 07:01:13;;;;;;;10.60;9.80;;;11.60;99.90;;;;;;5013219;28;20049;-84
2023/05/08 07:03:40;;;;;;;12.18;10.85;;;14.40;99.90;;;;;;5033138;28;20528;-83
2023/05/08 07:06:08;;;;;;;11.25;10.25;;;11.90;99.90;;;;;;5022007;28;20042;-89
2023/05/08 07:08:33;;;;;;;14.95;11.75;;;13.20;99.90;;;;;;5033651;28;20045;-85
2023/05/08 07:10:59;;;;;;;11.77;10.77;;;12.90;99.90;;;;;;5014921;28;20040;-85
2023/05/08 07:13:25;;;;;;;12.68;11.48;;;12.10;99.90;;;;;;5034097;28;20051;-88
2023/05/08 07:15:51;;;;;;;11.07;10.00;;;13.70;99.90;;;;;;5015674;28;20416;-85
2023/05/08 07:18:16;;;;;;;11.93;10.82;;;12.00;99.90;;;;;;5014493;28;20513;-88
2023/05/08 07:20:42;;;;;;;10.68;9.60;;;12.30;99.90;;;;;;5014846;28;20087;-86
2023/05/08 07:23:08;;;;;;;11.80;10.25;;;12.40;99.90;;;;;;5033130;28;20049;-85
2023/05/08 07:25:35;;;;;;;12.02;10.82;;;14.60;99.90;;;;;;5034328;28;20048;-87
2023/05/08 07:28:00;;;;;;;11.27;9.98;;;13.90;99.90;;;;;;5033561;28;20063;-89
2023/05/08 07:30:26;;;;;;;10.63;9.63;;;14.80;99.90;;;;;;5018042;28;20488;-88
2023/05/08 07:32:52;;;;;;;10.82;9.63;;;14.30;99.90;;;;;;5036093;28;20128;-88
2023/05/08 07:35:18;;;;;;;11.75;10.77;;;12.80;99.90;;;;;;5014675;28;20187;-89
2023/05/08 07:37:47;;;;;;;11.20;10.20;;;13.70;99.90;;;;;;5034152;28;20045;-91
2023/05/08 07:40:13;;;;;;;10.90;9.98;;;12.90;99.90;;;;;;5033289;28;20454;-89
2023/05/08 07:42:41;;;;;;;11.10;10.02;;;12.70;99.90;;;;;;5029217;28;20037;-88
2023/05/08 07:45:08;;;;;;;10.55;9.55;;;13.10;99.90;;;;;;5030944;28;20085;-85
2023/05/08 07:47:34;;;;;;;10.40;9.40;;;13.10;99.90;;;;;;5014611;28;20060;-86
2023/05/08 07:50:01;;;;;;;10.93;9.82;;;14.80;99.90;;;;;;5022124;28;20581;-79
2023/05/08 07:52:26;;;;;;;11.05;9.68;;;13.20;99.90;;;;;;5028679;28;20045;-79
2023/05/08 07:54:52;;;;;;;11.02;10.02;;;13.90;99.90;;;;;;5013545;28;20107;-79
2023/05/08 07:57:18;;;;;;;12.68;9.82;;;14.50;99.90;;;;;;5012407;28;20547;-86
2023/05/08 07:59:43;;;;;;;11.18;10.07;;;15.50;99.90;;;;;;5026864;28;20140;-86
2023/05/08 08:02:09;;;;;;;10.40;9.48;;;13.40;99.90;;;;;;5035352;28;20108;-85
2023/05/08 08:04:34;;;;;;;12.20;10.10;;;13.50;99.90;;;;;;5030928;28;20481;-82
2023/05/08 08:07:00;;;;;;;10.48;9.55;;;13.50;99.90;;;;;;5013518;28;20111;-85
2023/05/08 08:09:26;;;;;;;9.95;9.05;;;13.50;99.90;;;;;;5023362;28;20101;-84
2023/05/08 08:11:52;;;;;;;10.85;9.93;;;13.60;99.90;;;;;;5029262;28;20042;-93
2023/05/08 08:14:18;;;;;;;11.00;9.88;;;13.70;99.90;;;;;;5015316;28;20067;-87
2023/05/08 08:16:43;;;;;;;10.98;9.98;;;13.90;99.90;;;;;;5035238;28;20033;-86
2023/05/08 08:19:12;;;;;;;11.48;10.40;;;15.70;99.90;;;;;;5032053;28;20461;-87
2023/05/08 08:21:43;;;;;;;11.60;9.25;;;15.90;99.90;;;;;;5031011;28;20048;-88
2023/05/08 08:24:09;;;;;;;11.05;10.10;;;16.00;99.90;;;;;;5035049;28;20052;-85
2023/05/08 08:26:35;;;;;;;10.35;9.45;;;14.00;99.90;;;;;;5030773;28;20037;-89
2023/05/08 08:29:01;;;;;;;11.15;10.15;;;14.00;99.90;;;;;;5031293;28;20041;-85
2023/05/08 08:31:26;;;;;;;10.02;9.13;;;14.90;99.90;;;;;;5029328;28;20048;-88
2023/05/08 08:33:52;;;;;;;10.07;9.27;;;14.20;99.90;;;;;;5034034;28;20057;-86
2023/05/08 08:36:21;;;;;;;11.13;10.05;;;14.20;99.90;;;;;;5019401;28;20128;-91
2023/05/08 08:38:50;;;;;;;11.93;9.50;;;14.20;99.90;;;;;;5032834;28;20053;-85
2023/05/08 08:41:15;;;;;;;10.02;9.10;;;16.00;99.90;;;;;;5030814;28;20042;-87
2023/05/08 08:43:44;;;;;;;11.05;10.02;;;16.50;99.90;;;;;;5031439;28;20053;-84
2023/05/08 08:46:16;;;;;;;11.27;10.10;;;15.00;99.90;;;;;;5028722;28;20033;-86
2023/05/08 08:48:48;;;;;;;10.50;9.38;;;15.20;99.90;;;;;;5028350;28;20501;-84
2023/05/08 08:51:23;;;;;;;10.48;9.50;;;14.50;99.90;;;;;;5021527;28;20079;-84
2023/05/08 08:54:12;;;;;;;10.35;9.35;;;14.50;99.90;;;;;;5030512;28;20055;-85
2023/05/08 08:56:41;;;;;;;10.95;9.95;;;14.80;99.90;;;;;;5017632;28;20083;-86
2023/05/08 08:59:08;;;;;;;10.48;9.48;;;14.60;99.90;;;;;;5035667;28;20058;-86
2023/05/08 09:01:36;;;;;;;11.02;10.13;;;16.50;99.90;;;;;;5029790;28;20049;-85
2023/05/08 09:04:02;;;;;;;11.00;10.00;;;14.80;99.90;;;;;;5039311;28;20400;-86
2023/05/08 09:06:28;;;;;;;11.55;10.45;;;14.90;99.90;;;;;;5035031;28;20025;-86
2023/05/08 09:08:57;;;;;;;10.27;9.38;;;15.70;99.90;;;;;;5036398;28;20049;-87
2023/05/08 09:11:27;;;;;;;9.95;9.05;;;15.10;99.90;;;;;;5026657;28;20037;-86
2023/05/08 09:13:56;;;;;;;10.85;9.75;;;15.20;99.90;;;;;;5013488;28;20852;-86
2023/05/08 09:16:23;;;;;;;9.75;8.95;;;15.20;99.90;;;;;;5037404;28;20523;-86
2023/05/08 09:18:49;;;;;;;11.35;10.30;;;13.70;99.90;;;;;;5035160;28;20053;-86
2023/05/08 09:21:16;;;;;;;10.68;9.73;;;16.10;99.90;;;;;;5027999;28;20051;-86
2023/05/08 09:23:58;;;;;;;10.80;9.85;;;15.30;99.90;;;;;;5039846;28;20467;-86
2023/05/08 09:26:34;;;;;;;10.70;9.70;;;15.40;99.90;;;;;;5027170;28;20170;-87
2023/05/08 09:29:08;;;;;;;11.48;10.43;;;16.80;99.90;;;;;;5017255;28;20060;-86
2023/05/08 09:31:39;;;;;;;11.05;10.02;;;17.00;99.90;;;;;;5035212;28;20041;-85
2023/05/08 09:34:10;;;;;;;10.77;9.77;;;15.60;99.90;;;;;;5036186;28;20044;-86
2023/05/08 09:36:38;;;;;;;13.15;11.10;;;16.60;99.90;;;;;;5036038;28;20049;-88
2023/05/08 09:39:08;;;;;;;12.05;10.82;;;15.70;99.90;;;;;;5029114;28;20049;-85
2023/05/08 09:41:34;;;;;;;12.00;11.00;;;15.90;99.90;;;;;;5028463;28;20482;-85
2023/05/08 09:44:02;;;;;;;11.38;10.40;;;15.90;99.90;;;;;;5027991;28;20124;-88
2023/05/08 09:46:29;;;;;;;11.95;10.85;;;16.70;99.90;;;;;;5032046;28;20045;-85
2023/05/08 09:48:56;;;;;;;11.75;10.73;;;17.60;99.90;;;;;;5029544;28;20049;-85
2023/05/08 09:51:23;;;;;;;12.63;11.25;;;16.10;99.90;;;;;;5030349;28;20056;-85
2023/05/08 09:53:53;;;;;;;12.63;11.38;;;16.50;99.90;;;;;;5029729;28;20100;-84
2023/05/08 09:56:28;;;;;;;12.95;11.75;;;17.10;99.90;;;;;;5031987;28;20642;-85
2023/05/08 09:58:54;;;;;;;14.48;13.07;;;16.40;99.90;;;;;;5028054;28;20057;-84
2023/05/08 10:01:31;;;;;;;12.40;11.48;;;16.50;99.90;;;;;;5029196;28;20045;-85
2023/05/08 10:03:57;;;;;;;12.45;11.45;;;16.90;99.90;;;;;;5032138;28;20088;-85
2023/05/08 10:06:24;;;;;;;12.27;11.23;;;16.70;99.90;;;;;;5012445;28;20088;-84
2023/05/08 10:09:14;;;;;;;12.00;11.00;;;17.10;99.90;;;;;;5034204;28;20033;-85
2023/05/08 10:11:53;;;;;;;12.82;11.52;;;16.90;99.90;;;;;;5036597;28;20056;-87
2023/05/08 10:14:20;;;;;;;13.05;11.93;;;17.00;99.90;;;;;;5029143;28;20037;-85
2023/05/08 10:16:48;;;;;;;13.98;12.63;;;18.30;99.90;;;;;;5051767;28;20104;-85
2023/05/08 10:19:16;;;;;;;14.05;12.80;;;18.40;99.90;;;;;;5034615;28;20132;-83
2023/05/08 10:21:49;;;;;;;13.20;11.85;;;17.20;99.90;;;;;;5034903;28;20041;-85
2023/05/08 10:24:39;;;;;;;12.18;10.52;;;19.00;99.90;;;;;;5034598;28;20061;-84
2023/05/08 10:27:45;;;;;;;15.50;14.02;;;17.40;99.90;;;;;;5034599;28;20060;-86
2023/05/08 10:30:13;;;;;;;12.90;11.70;;;17.50;99.90;;;;;;5027225;28;20053;-86
2023/05/08 10:32:43;;;;;;;15.65;13.23;;;17.70;99.90;;;;;;5028162;28;20046;-86
2023/05/08 10:35:10;;;;;;;15.05;13.07;;;18.20;99.90;;;;;;5029064;28;20127;-85
2023/05/08 10:37:37;;;;;;;13.52;12.35;;;18.50;99.90;;;;;;5027486;28;20042;-87
2023/05/08 10:40:05;;;;;;;13.48;12.15;;;17.80;99.90;;;;;;5025677;28;20119;-85
2023/05/08 10:42:36;;;;;;;15.10;13.52;;;17.90;99.90;;;;;;5027397;28;20485;-88
2023/05/08 10:45:04;;;;;;;13.60;12.27;;;18.00;99.90;;;;;;5027567;28;20590;-84
2023/05/08 10:48:03;;;;;;;13.18;12.07;;;18.00;99.90;;;;;;5027152;28;20261;-85
2023/05/08 10:50:41;;;;;;;13.98;12.77;;;18.10;99.90;;;;;;5002597;28;20049;-84
2023/05/08 10:53:15;;;;;;;14.25;12.88;;;18.20;99.90;;;;;;5019512;28;20074;-88
2023/05/08 10:55:44;;;;;;;;;;;18.40;99.90;;;;;;5031461;28;20045;-86
2023/05/08 10:58:14;;;;;;;12.70;11.60;;;18.60;99.90;;;;;;5032899;28;19929;-86
2023/05/08 11:01:06;;;;;;;11.90;10.90;;;19.30;99.90;;;;;;5032615;28;20064;-86
2023/05/08 11:03:37;;;;;;;13.98;12.57;;;18.70;99.90;;;;;;5009611;28;20052;-87
2023/05/08 11:06:04;;;;;;;14.52;13.02;;;20.40;99.90;;;;;;5040700;28;20052;-87
2023/05/08 11:08:35;;;;;;;13.07;11.88;;;18.90;99.90;;;;;;5036079;28;20041;-85
2023/05/08 11:11:05;;;;;;;13.13;11.95;;;19.00;99.90;;;;;;5034338;28;20127;-88
2023/05/08 11:13:34;;;;;;;12.70;11.68;;;19.20;99.90;;;;;;5031932;28;20057;-87
2023/05/08 11:16:02;;;;;;;13.05;11.93;;;19.40;99.90;;;;;;5030770;28;20061;-88
2023/05/08 11:18:28;;;;;;;13.82;12.63;;;19.60;99.90;;;;;;5036816;28;20481;-87
2023/05/08 11:20:58;;;;;;;13.80;12.70;;;19.70;99.90;;;;;;5036887;28;20118;-86
2023/05/08 11:23:28;;;;;;;13.00;11.85;;;19.90;99.90;;;;;;5033816;28;20080;-84
2023/05/08 11:26:05;;;;;;;13.57;11.60;;;19.90;99.90;;;;;;5032985;28;20128;-88
2023/05/08 11:28:56;;;;;;;12.05;10.82;;;20.40;99.90;;;;;;5034564;28;20041;-87
2023/05/08 11:31:23;;;;;;;11.48;10.48;;;19.90;99.90;;;;;;5030525;28;20449;-87
2023/05/08 11:33:49;;;;;;;13.30;11.88;;;20.20;99.90;;;;;;5035066;28;20512;-92
2023/05/08 11:36:21;;;;;;;11.35;10.20;;;20.30;99.90;;;;;;5023048;28;20544;-87
2023/05/08 11:39:07;;;;;;;12.02;10.93;;;20.50;99.90;;;;;;5031755;28;20111;-92
2023/05/08 11:41:33;;;;;;;11.98;10.77;;;21.00;99.90;;;;;;5025842;28;20046;-87
2023/05/08 11:44:01;;;;;;;12.18;10.93;;;20.80;99.90;;;;;;5019361;28;20036;-86
2023/05/08 11:46:50;;;;;;;13.13;12.02;;;21.00;99.90;;;;;;5022585;28;20056;-88
2023/05/08 11:49:17;;;;;;;12.48;11.38;;;21.10;99.90;;;;;;5030507;28;20555;-88
2023/05/08 11:51:54;;;;;;;19.10;17.23;;;21.90;99.90;;;;;;5031465;28;20041;-86
2023/05/08 11:54:23;;;;;;;14.98;12.48;;;22.40;99.90;;;;;;5008416;28;20413;-90
2023/05/08 11:56:56;;;;;;;12.18;11.10;;;21.00;99.90;;;;;;5014664;28;20064;-87
2023/05/08 11:59:22;;;;;;;13.17;11.93;;;20.70;99.90;;;;;;5029277;28;20072;-90
2023/05/08 12:01:57;;;;;;;13.40;12.10;;;20.80;99.90;;;;;;5031595;28;20795;-90
2023/05/08 12:04:22;;;;;;;12.88;11.75;;;20.80;99.90;;;;;;5019837;28;20042;-92
2023/05/08 12:06:50;;;;;;;18.55;16.63;;;20.90;99.90;;;;;;5031089;28;20064;-88
2023/05/08 12:09:17;;;;;;;21.83;13.07;;;20.90;99.90;;;;;;5030285;28;20061;-91
2023/05/08 12:11:48;;;;;;;13.32;12.10;;;21.00;99.90;;;;;;5031549;28;20051;-89
2023/05/08 12:14:17;;;;;;;12.70;11.40;;;20.90;99.90;;;;;;5015881;28;20359;-89
2023/05/08 12:16:45;;;;;;;12.50;11.30;;;20.60;99.90;;;;;;5013115;28;20045;-88
2023/05/08 12:19:13;;;;;;;13.43;11.93;;;21.20;99.90;;;;;;5012326;28;20428;-89
2023/05/08 12:21:47;;;;;;;13.32;11.40;;;20.80;99.90;;;;;;5014333;28;20079;-93
2023/05/08 12:24:15;;;;;;;;;;;20.60;99.90;;;;;;5012960;28;20405;-81
2023/05/08 12:27:08;;;;;;;12.43;11.15;;;20.80;99.90;;;;;;5490988;22;19922;-82
2023/05/08 12:29:36;;;;;;;13.98;11.35;;;21.00;99.90;;;;;;4969482;28;20043;-83
2023/05/08 12:32:02;;;;;;;13.23;11.77;;;20.90;99.90;;;;;;4989084;28;20101;-80
2023/05/08 12:34:28;;;;;;;10.95;9.85;;;20.90;99.90;;;;;;4963925;28;20047;-82
2023/05/08 12:37:03;;;;;;;16.88;12.80;;;20.90;99.90;;;;;;4964710;28;20047;-81
2023/05/08 12:39:35;;;;;;;13.23;12.02;;;21.20;99.90;;;;;;4967674;28;20039;-81
2023/05/08 12:42:00;;;;;;;12.93;11.75;;;21.00;99.90;;;;;;4943185;28;20118;-80
2023/05/08 12:44:27;;;;;;;13.43;12.00;;;20.90;99.90;;;;;;4949325;28;20563;-79